KNEL/NEL METAR and TAF weather

Enter ICAO airport designator
Station Type Date Time Source
KNEL METAR 2022/11/30 16:03 UTC NOAA

KNEL 301603Z AUTO 16014G21KT -RA BKN014 BKN032 OVC060 13/12 A2989 RMK AO2 PRESFR T01280117 PNO $


Station Type Date Time Source
KNEL Decoded METAR 2022/11/30 16:03 UTC NOAA

Lakehurst Naval Air Station, NJ, United States (KNEL) 40-02N 074-19W 24M
Nov 30, 2022 - 11:03 AM EST / 2022.11.30 1603 UTC
Wind: from the SSE (160 degrees) at 16 MPH (14 KT) gusting to 24 MPH (21 KT):0
Sky conditions: overcast
Weather: light rain
Temperature: 55.0 F (12.8 C)
Dew Point: 53.1 F (11.7 C)
Relative Humidity: 93%
Pressure (altimeter): 29.89 in. Hg (1012 hPa)
Pressure tendency: falling rapidly
ob: KNEL 301603Z AUTO 16014G21KT -RA BKN014 BKN032 OVC060 13/12 A2989 RMK AO2 PRESFR T01280117 PNO
cycle: 16

Station Type Date Time Source
KNEL TAF UTC NOAA

Error!

Example: see airport list